sensor_id;sensor_type;location;lat;lon;timestamp;temperature;humidity
46055;DHT22;31788;6.954;-71.872;2023-03-01T00:00:06;29.10;91.00
46055;DHT22;31788;6.954;-71.872;2023-03-01T00:02:33;29.10;91.10
46055;DHT22;31788;6.954;-71.872;2023-03-01T00:05:00;29.10;91.00
46055;DHT22;31788;6.954;-71.872;2023-03-01T00:07:26;29.10;90.90
46055;DHT22;31788;6.954;-71.872;2023-03-01T00:09:53;29.10;91.00
46055;DHT22;31788;6.954;-71.872;2023-03-01T00:12:20;29.10;91.10
46055;DHT22;31788;6.954;-71.872;2023-03-01T00:14:46;29.10;91.00
46055;DHT22;31788;6.954;-71.872;2023-03-01T00:17:13;29.10;90.80
46055;DHT22;31788;6.954;-71.872;2023-03-01T00:19:40;29.10;91.10
46055;DHT22;31788;6.954;-71.872;2023-03-01T00:22:06;29.10;90.70
46055;DHT22;31788;6.954;-71.872;2023-03-01T00:24:33;29.00;90.60
46055;DHT22;31788;6.954;-71.872;2023-03-01T00:26:59;29.00;90.50
46055;DHT22;31788;6.954;-71.872;2023-03-01T00:29:26;29.00;90.50
46055;DHT22;31788;6.954;-71.872;2023-03-01T00:31:53;29.00;90.40
46055;DHT22;31788;6.954;-71.872;2023-03-01T00:34:19;29.00;90.30
46055;DHT22;31788;6.954;-71.872;2023-03-01T00:36:46;29.00;90.40
46055;DHT22;31788;6.954;-71.872;2023-03-01T00:39:14;29.00;90.30
46055;DHT22;31788;6.954;-71.872;2023-03-01T00:41:41;28.90;90.20
46055;DHT22;31788;6.954;-71.872;2023-03-01T00:44:09;28.90;90.10
46055;DHT22;31788;6.954;-71.872;2023-03-01T00:46:35;29.00;90.10
46055;DHT22;31788;6.954;-71.872;2023-03-01T00:49:02;28.90;90.00
46055;DHT22;31788;6.954;-71.872;2023-03-01T00:51:30;28.90;89.90
46055;DHT22;31788;6.954;-71.872;2023-03-01T00:53:59;28.90;89.80
46055;DHT22;31788;6.954;-71.872;2023-03-01T00:56:27;28.90;89.80
46055;DHT22;31788;6.954;-71.872;2023-03-01T00:58:54;28.90;89.90
46055;DHT22;31788;6.954;-71.872;2023-03-01T01:01:23;28.90;89.80
46055;DHT22;31788;6.954;-71.872;2023-03-01T01:03:56;28.90;90.00
46055;DHT22;31788;6.954;-71.872;2023-03-01T01:06:31;28.90;90.00
46055;DHT22;31788;6.954;-71.872;2023-03-01T01:08:59;28.80;89.60
46055;DHT22;31788;6.954;-71.872;2023-03-01T01:11:28;28.80;90.00
46055;DHT22;31788;6.954;-71.872;2023-03-01T01:13:56;28.90;90.10
46055;DHT22;31788;6.954;-71.872;2023-03-01T01:16:24;28.80;90.10
46055;DHT22;31788;6.954;-71.872;2023-03-01T01:18:52;28.80;90.10
46055;DHT22;31788;6.954;-71.872;2023-03-01T01:21:20;28.90;90.00
46055;DHT22;31788;6.954;-71.872;2023-03-01T01:23:48;28.80;89.80
46055;DHT22;31788;6.954;-71.872;2023-03-01T01:26:17;28.80;90.10
46055;DHT22;31788;6.954;-71.872;2023-03-01T01:28:45;28.80;90.00
46055;DHT22;31788;6.954;-71.872;2023-03-01T01:31:12;28.80;90.00
46055;DHT22;31788;6.954;-71.872;2023-03-01T01:33:38;28.80;89.90
46055;DHT22;31788;6.954;-71.872;2023-03-01T01:36:06;28.80;89.60
46055;DHT22;31788;6.954;-71.872;2023-03-01T01:38:34;28.70;89.60
46055;DHT22;31788;6.954;-71.872;2023-03-01T01:41:01;28.80;89.80
46055;DHT22;31788;6.954;-71.872;2023-03-01T01:43:30;28.70;90.00
46055;DHT22;31788;6.954;-71.872;2023-03-01T01:46:03;28.70;90.00
46055;DHT22;31788;6.954;-71.872;2023-03-01T01:48:50;28.70;90.00
46055;DHT22;31788;6.954;-71.872;2023-03-01T01:51:25;28.70;90.00
46055;DHT22;31788;6.954;-71.872;2023-03-01T01:53:59;28.60;90.10
46055;DHT22;31788;6.954;-71.872;2023-03-01T01:56:27;28.60;90.10
46055;DHT22;31788;6.954;-71.872;2023-03-01T01:58:55;28.60;89.80
46055;DHT22;31788;6.954;-71.872;2023-03-01T02:01:23;28.60;89.80
46055;DHT22;31788;6.954;-71.872;2023-03-01T02:03:51;28.60;89.90
46055;DHT22;31788;6.954;-71.872;2023-03-01T02:06:44;28.60;89.70
46055;DHT22;31788;6.954;-71.872;2023-03-01T02:09:16;28.60;90.00
46055;DHT22;31788;6.954;-71.872;2023-03-01T02:11:44;28.50;89.60
46055;DHT22;31788;6.954;-71.872;2023-03-01T02:14:11;28.50;89.50
46055;DHT22;31788;6.954;-71.872;2023-03-01T02:16:37;28.50;89.00
46055;DHT22;31788;6.954;-71.872;2023-03-01T02:19:05;28.50;88.70
46055;DHT22;31788;6.954;-71.872;2023-03-01T02:24:31;28.50;88.40
46055;DHT22;31788;6.954;-71.872;2023-03-01T02:27:01;28.40;88.20
46055;DHT22;31788;6.954;-71.872;2023-03-01T02:29:28;28.40;88.20
46055;DHT22;31788;6.954;-71.872;2023-03-01T02:31:58;28.50;88.80
46055;DHT22;31788;6.954;-71.872;2023-03-01T02:34:26;28.50;88.70
46055;DHT22;31788;6.954;-71.872;2023-03-01T02:37:05;28.40;88.60
46055;DHT22;31788;6.954;-71.872;2023-03-01T02:39:40;28.40;88.80
46055;DHT22;31788;6.954;-71.872;2023-03-01T02:42:11;28.40;88.90
46055;DHT22;31788;6.954;-71.872;2023-03-01T02:44:38;28.40;88.70
46055;DHT22;31788;6.954;-71.872;2023-03-01T02:47:05;28.40;88.70
46055;DHT22;31788;6.954;-71.872;2023-03-01T02:49:35;28.40;89.10
46055;DHT22;31788;6.954;-71.872;2023-03-01T02:57:31;28.30;89.40
46055;DHT22;31788;6.954;-71.872;2023-03-01T03:00:02;28.30;89.60
46055;DHT22;31788;6.954;-71.872;2023-03-01T03:02:33;28.20;89.50
46055;DHT22;31788;6.954;-71.872;2023-03-01T03:05:13;28.20;90.00
46055;DHT22;31788;6.954;-71.872;2023-03-01T03:07:43;28.10;90.20
46055;DHT22;31788;6.954;-71.872;2023-03-01T03:10:33;28.10;90.30
46055;DHT22;31788;6.954;-71.872;2023-03-01T03:13:01;28.10;90.40
46055;DHT22;31788;6.954;-71.872;2023-03-01T03:15:28;27.90;90.40
46055;DHT22;31788;6.954;-71.872;2023-03-01T03:17:57;27.90;90.60
46055;DHT22;31788;6.954;-71.872;2023-03-01T03:20:26;27.90;90.80
46055;DHT22;31788;6.954;-71.872;2023-03-01T03:22:54;27.80;90.70
46055;DHT22;31788;6.954;-71.872;2023-03-01T03:25:22;27.80;90.90
46055;DHT22;31788;6.954;-71.872;2023-03-01T03:27:50;27.80;90.90
46055;DHT22;31788;6.954;-71.872;2023-03-01T03:30:24;27.80;90.70
46055;DHT22;31788;6.954;-71.872;2023-03-01T03:32:51;27.80;90.70
46055;DHT22;31788;6.954;-71.872;2023-03-01T03:35:23;27.80;90.40
46055;DHT22;31788;6.954;-71.872;2023-03-01T03:37:51;27.80;90.60
46055;DHT22;31788;6.954;-71.872;2023-03-01T03:40:39;27.80;90.80
46055;DHT22;31788;6.954;-71.872;2023-03-01T03:43:08;27.80;90.30
46055;DHT22;31788;6.954;-71.872;2023-03-01T03:45:36;27.80;90.50
46055;DHT22;31788;6.954;-71.872;2023-03-01T03:48:06;27.90;90.40
46055;DHT22;31788;6.954;-71.872;2023-03-01T03:50:33;27.90;90.20
46055;DHT22;31788;6.954;-71.872;2023-03-01T03:53:05;27.90;90.10
46055;DHT22;31788;6.954;-71.872;2023-03-01T03:55:32;27.90;89.70
46055;DHT22;31788;6.954;-71.872;2023-03-01T03:58:00;28.00;90.10
46055;DHT22;31788;6.954;-71.872;2023-03-01T04:00:43;28.00;89.50
46055;DHT22;31788;6.954;-71.872;2023-03-01T04:03:11;28.00;89.50
46055;DHT22;31788;6.954;-71.872;2023-03-01T04:05:39;28.00;89.20
46055;DHT22;31788;6.954;-71.872;2023-03-01T04:08:07;28.00;89.00
46055;DHT22;31788;6.954;-71.872;2023-03-01T04:10:41;28.10;89.30
46055;DHT22;31788;6.954;-71.872;2023-03-01T04:13:12;28.10;89.30
46055;DHT22;31788;6.954;-71.872;2023-03-01T04:15:39;28.10;89.10
46055;DHT22;31788;6.954;-71.872;2023-03-01T04:18:07;28.10;89.10
46055;DHT22;31788;6.954;-71.872;2023-03-01T04:20:35;28.10;89.00
46055;DHT22;31788;6.954;-71.872;2023-03-01T04:23:03;28.10;89.40
46055;DHT22;31788;6.954;-71.872;2023-03-01T04:25:58;28.20;89.70
46055;DHT22;31788;6.954;-71.872;2023-03-01T04:28:26;28.10;89.60
46055;DHT22;31788;6.954;-71.872;2023-03-01T04:30:54;28.10;89.30
46055;DHT22;31788;6.954;-71.872;2023-03-01T04:33:22;28.10;89.30
46055;DHT22;31788;6.954;-71.872;2023-03-01T04:35:49;28.20;89.50
46055;DHT22;31788;6.954;-71.872;2023-03-01T04:38:17;28.10;90.30
46055;DHT22;31788;6.954;-71.872;2023-03-01T04:40:43;28.10;90.10
46055;DHT22;31788;6.954;-71.872;2023-03-01T04:43:11;28.10;90.30
46055;DHT22;31788;6.954;-71.872;2023-03-01T04:45:40;28.10;90.20
46055;DHT22;31788;6.954;-71.872;2023-03-01T04:48:07;28.10;90.20
46055;DHT22;31788;6.954;-71.872;2023-03-01T04:50:34;28.10;90.40
46055;DHT22;31788;6.954;-71.872;2023-03-01T04:53:01;28.10;90.40
46055;DHT22;31788;6.954;-71.872;2023-03-01T04:55:28;28.10;90.40
46055;DHT22;31788;6.954;-71.872;2023-03-01T04:57:55;28.10;90.40
46055;DHT22;31788;6.954;-71.872;2023-03-01T05:00:22;28.10;90.70
46055;DHT22;31788;6.954;-71.872;2023-03-01T05:02:53;28.00;90.70
46055;DHT22;31788;6.954;-71.872;2023-03-01T05:05:28;28.00;90.80
46055;DHT22;31788;6.954;-71.872;2023-03-01T05:07:59;27.90;90.80
46055;DHT22;31788;6.954;-71.872;2023-03-01T05:10:27;27.90;90.70
46055;DHT22;31788;6.954;-71.872;2023-03-01T05:12:58;27.90;90.90
46055;DHT22;31788;6.954;-71.872;2023-03-01T05:15:27;27.90;91.00
46055;DHT22;31788;6.954;-71.872;2023-03-01T05:17:55;27.90;91.10
46055;DHT22;31788;6.954;-71.872;2023-03-01T05:20:28;27.90;91.30
46055;DHT22;31788;6.954;-71.872;2023-03-01T05:22:59;27.90;91.00
46055;DHT22;31788;6.954;-71.872;2023-03-01T05:25:26;27.90;91.00
46055;DHT22;31788;6.954;-71.872;2023-03-01T05:27:53;27.90;91.00
46055;DHT22;31788;6.954;-71.872;2023-03-01T05:30:20;27.90;91.10
46055;DHT22;31788;6.954;-71.872;2023-03-01T05:32:48;27.90;91.30
46055;DHT22;31788;6.954;-71.872;2023-03-01T05:35:17;27.90;91.30
46055;DHT22;31788;6.954;-71.872;2023-03-01T05:37:45;27.90;91.00
46055;DHT22;31788;6.954;-71.872;2023-03-01T05:40:17;27.90;91.00
46055;DHT22;31788;6.954;-71.872;2023-03-01T05:43:10;27.90;90.90
46055;DHT22;31788;6.954;-71.872;2023-03-01T05:45:38;27.90;90.40
46055;DHT22;31788;6.954;-71.872;2023-03-01T05:48:08;27.90;90.60
46055;DHT22;31788;6.954;-71.872;2023-03-01T05:50:37;27.90;90.50
46055;DHT22;31788;6.954;-71.872;2023-03-01T05:53:14;27.90;90.60
46055;DHT22;31788;6.954;-71.872;2023-03-01T05:55:41;27.90;90.60
46055;DHT22;31788;6.954;-71.872;2023-03-01T05:58:11;27.90;90.70
46055;DHT22;31788;6.954;-71.872;2023-03-01T06:00:40;27.80;90.80
46055;DHT22;31788;6.954;-71.872;2023-03-01T06:03:09;27.80;90.90
46055;DHT22;31788;6.954;-71.872;2023-03-01T06:05:35;27.80;91.20
46055;DHT22;31788;6.954;-71.872;2023-03-01T06:08:03;27.70;91.00
46055;DHT22;31788;6.954;-71.872;2023-03-01T06:10:29;27.70;91.00
46055;DHT22;31788;6.954;-71.872;2023-03-01T06:12:56;27.60;91.10
46055;DHT22;31788;6.954;-71.872;2023-03-01T06:15:24;27.60;91.20
46055;DHT22;31788;6.954;-71.872;2023-03-01T06:17:51;27.60;91.00
46055;DHT22;31788;6.954;-71.872;2023-03-01T06:20:22;27.60;91.10
46055;DHT22;31788;6.954;-71.872;2023-03-01T06:22:50;27.60;91.10
46055;DHT22;31788;6.954;-71.872;2023-03-01T06:25:19;27.60;91.20
46055;DHT22;31788;6.954;-71.872;2023-03-01T06:27:47;27.60;91.40
46055;DHT22;31788;6.954;-71.872;2023-03-01T06:30:16;27.70;91.40
46055;DHT22;31788;6.954;-71.872;2023-03-01T06:32:43;27.70;91.30
46055;DHT22;31788;6.954;-71.872;2023-03-01T06:35:12;27.70;91.30
46055;DHT22;31788;6.954;-71.872;2023-03-01T06:37:40;27.70;91.40
46055;DHT22;31788;6.954;-71.872;2023-03-01T06:40:08;27.70;91.30
46055;DHT22;31788;6.954;-71.872;2023-03-01T06:42:39;27.80;91.30
46055;DHT22;31788;6.954;-71.872;2023-03-01T06:45:06;27.70;91.00
46055;DHT22;31788;6.954;-71.872;2023-03-01T06:47:33;27.70;91.10
46055;DHT22;31788;6.954;-71.872;2023-03-01T06:50:01;27.70;91.30
46055;DHT22;31788;6.954;-71.872;2023-03-01T06:52:28;27.70;91.30
46055;DHT22;31788;6.954;-71.872;2023-03-01T06:54:55;27.70;91.40
46055;DHT22;31788;6.954;-71.872;2023-03-01T06:57:21;27.70;91.40
46055;DHT22;31788;6.954;-71.872;2023-03-01T06:59:48;27.70;91.50
46055;DHT22;31788;6.954;-71.872;2023-03-01T07:02:15;27.70;91.60
46055;DHT22;31788;6.954;-71.872;2023-03-01T07:04:42;27.70;91.50
46055;DHT22;31788;6.954;-71.872;2023-03-01T07:07:09;27.70;91.60
46055;DHT22;31788;6.954;-71.872;2023-03-01T07:09:36;27.70;91.50
46055;DHT22;31788;6.954;-71.872;2023-03-01T07:12:03;27.70;91.70
46055;DHT22;31788;6.954;-71.872;2023-03-01T07:14:30;27.70;91.80
46055;DHT22;31788;6.954;-71.872;2023-03-01T07:16:56;27.70;91.80
46055;DHT22;31788;6.954;-71.872;2023-03-01T07:19:23;27.70;91.90
46055;DHT22;31788;6.954;-71.872;2023-03-01T07:21:50;27.70;92.10
46055;DHT22;31788;6.954;-71.872;2023-03-01T07:24:16;27.70;92.20
46055;DHT22;31788;6.954;-71.872;2023-03-01T07:26:43;27.70;92.40
46055;DHT22;31788;6.954;-71.872;2023-03-01T07:29:10;27.70;92.40
46055;DHT22;31788;6.954;-71.872;2023-03-01T07:31:37;27.60;92.50
46055;DHT22;31788;6.954;-71.872;2023-03-01T07:34:03;27.60;92.50
46055;DHT22;31788;6.954;-71.872;2023-03-01T07:36:30;27.60;92.70
46055;DHT22;31788;6.954;-71.872;2023-03-01T07:38:57;27.50;92.70
46055;DHT22;31788;6.954;-71.872;2023-03-01T07:41:24;27.50;93.00
46055;DHT22;31788;6.954;-71.872;2023-03-01T07:43:51;27.50;93.20
46055;DHT22;31788;6.954;-71.872;2023-03-01T07:46:17;27.50;93.50
46055;DHT22;31788;6.954;-71.872;2023-03-01T07:48:45;27.40;93.20
46055;DHT22;31788;6.954;-71.872;2023-03-01T07:51:11;27.40;93.40
46055;DHT22;31788;6.954;-71.872;2023-03-01T07:53:38;27.30;93.50
46055;DHT22;31788;6.954;-71.872;2023-03-01T07:58:35;27.30;93.90
46055;DHT22;31788;6.954;-71.872;2023-03-01T08:01:03;27.30;94.00
46055;DHT22;31788;6.954;-71.872;2023-03-01T08:03:30;27.20;94.00
46055;DHT22;31788;6.954;-71.872;2023-03-01T08:05:58;27.20;93.90
46055;DHT22;31788;6.954;-71.872;2023-03-01T08:08:25;27.20;94.00
46055;DHT22;31788;6.954;-71.872;2023-03-01T08:10:52;27.10;93.70
46055;DHT22;31788;6.954;-71.872;2023-03-01T08:13:18;27.20;94.00
46055;DHT22;31788;6.954;-71.872;2023-03-01T08:15:51;27.20;93.80
46055;DHT22;31788;6.954;-71.872;2023-03-01T08:18:19;27.20;93.80
46055;DHT22;31788;6.954;-71.872;2023-03-01T08:20:46;27.30;93.90
46055;DHT22;31788;6.954;-71.872;2023-03-01T08:23:13;27.30;94.00
46055;DHT22;31788;6.954;-71.872;2023-03-01T08:25:39;27.30;94.30
46055;DHT22;31788;6.954;-71.872;2023-03-01T08:28:06;27.20;94.60
46055;DHT22;31788;6.954;-71.872;2023-03-01T08:30:33;27.20;94.10
46055;DHT22;31788;6.954;-71.872;2023-03-01T08:33:00;27.20;94.20
46055;DHT22;31788;6.954;-71.872;2023-03-01T08:35:27;27.20;94.30
46055;DHT22;31788;6.954;-71.872;2023-03-01T08:37:53;27.20;94.30
46055;DHT22;31788;6.954;-71.872;2023-03-01T08:40:20;27.20;94.50
46055;DHT22;31788;6.954;-71.872;2023-03-01T08:42:46;27.20;94.10
46055;DHT22;31788;6.954;-71.872;2023-03-01T08:45:13;27.20;94.30
46055;DHT22;31788;6.954;-71.872;2023-03-01T08:47:44;27.20;94.20
46055;DHT22;31788;6.954;-71.872;2023-03-01T08:50:11;27.20;94.50
46055;DHT22;31788;6.954;-71.872;2023-03-01T08:52:38;27.20;94.50
46055;DHT22;31788;6.954;-71.872;2023-03-01T08:55:05;27.10;94.40
46055;DHT22;31788;6.954;-71.872;2023-03-01T08:57:31;27.10;94.40
46055;DHT22;31788;6.954;-71.872;2023-03-01T08:59:58;27.10;94.50
46055;DHT22;31788;6.954;-71.872;2023-03-01T09:02:25;27.10;94.50
46055;DHT22;31788;6.954;-71.872;2023-03-01T09:04:51;27.20;94.40
46055;DHT22;31788;6.954;-71.872;2023-03-01T09:07:18;27.20;94.20
46055;DHT22;31788;6.954;-71.872;2023-03-01T09:09:44;27.20;94.00
46055;DHT22;31788;6.954;-71.872;2023-03-01T09:12:11;27.20;94.10
46055;DHT22;31788;6.954;-71.872;2023-03-01T09:14:37;27.10;94.30
46055;DHT22;31788;6.954;-71.872;2023-03-01T09:17:04;27.10;94.40
46055;DHT22;31788;6.954;-71.872;2023-03-01T09:19:31;27.10;94.40
46055;DHT22;31788;6.954;-71.872;2023-03-01T09:21:57;27.10;94.30
46055;DHT22;31788;6.954;-71.872;2023-03-01T09:24:24;27.10;94.10
46055;DHT22;31788;6.954;-71.872;2023-03-01T09:26:54;27.10;94.30
46055;DHT22;31788;6.954;-71.872;2023-03-01T09:29:21;27.10;94.10
46055;DHT22;31788;6.954;-71.872;2023-03-01T09:31:48;27.10;94.20
46055;DHT22;31788;6.954;-71.872;2023-03-01T09:34:15;27.10;94.30
46055;DHT22;31788;6.954;-71.872;2023-03-01T09:36:45;27.00;94.20
46055;DHT22;31788;6.954;-71.872;2023-03-01T09:39:12;27.00;94.10
46055;DHT22;31788;6.954;-71.872;2023-03-01T09:42:00;26.90;94.20
46055;DHT22;31788;6.954;-71.872;2023-03-01T09:44:42;26.90;94.20
46055;DHT22;31788;6.954;-71.872;2023-03-01T09:47:20;26.90;94.20
46055;DHT22;31788;6.954;-71.872;2023-03-01T09:55:54;26.90;94.80
46055;DHT22;31788;6.954;-71.872;2023-03-01T10:01:33;26.90;94.60
46055;DHT22;31788;6.954;-71.872;2023-03-01T10:06:30;26.80;95.10
46055;DHT22;31788;6.954;-71.872;2023-03-01T10:09:07;26.70;95.20
46055;DHT22;31788;6.954;-71.872;2023-03-01T10:11:39;26.70;95.30
46055;DHT22;31788;6.954;-71.872;2023-03-01T10:17:20;26.70;95.40
46055;DHT22;31788;6.954;-71.872;2023-03-01T10:19:44;26.70;95.10
46055;DHT22;31788;6.954;-71.872;2023-03-01T10:24:43;26.80;95.10
46055;DHT22;31788;6.954;-71.872;2023-03-01T10:27:34;26.70;95.10
46055;DHT22;31788;6.954;-71.872;2023-03-01T10:30:35;26.70;95.20
46055;DHT22;31788;6.954;-71.872;2023-03-01T10:33:35;26.70;94.90
46055;DHT22;31788;6.954;-71.872;2023-03-01T10:36:04;26.70;95.10
46055;DHT22;31788;6.954;-71.872;2023-03-01T10:38:46;26.70;95.30
46055;DHT22;31788;6.954;-71.872;2023-03-01T10:41:13;26.70;95.30
46055;DHT22;31788;6.954;-71.872;2023-03-01T10:43:50;26.70;95.30
46055;DHT22;31788;6.954;-71.872;2023-03-01T10:46:35;26.70;95.60
46055;DHT22;31788;6.954;-71.872;2023-03-01T10:49:14;26.70;95.40
46055;DHT22;31788;6.954;-71.872;2023-03-01T10:51:43;26.70;95.60
46055;DHT22;31788;6.954;-71.872;2023-03-01T10:54:31;26.70;95.50
46055;DHT22;31788;6.954;-71.872;2023-03-01T10:57:00;26.80;95.70
46055;DHT22;31788;6.954;-71.872;2023-03-01T10:59:28;26.80;95.40
46055;DHT22;31788;6.954;-71.872;2023-03-01T11:02:18;26.80;95.50
46055;DHT22;31788;6.954;-71.872;2023-03-01T11:07:57;26.80;95.60
46055;DHT22;31788;6.954;-71.872;2023-03-01T11:10:28;26.80;95.30
46055;DHT22;31788;6.954;-71.872;2023-03-01T11:13:24;26.90;95.30
46055;DHT22;31788;6.954;-71.872;2023-03-01T11:16:06;26.90;95.40
46055;DHT22;31788;6.954;-71.872;2023-03-01T11:18:34;26.90;95.40
46055;DHT22;31788;6.954;-71.872;2023-03-01T11:21:01;26.90;95.70
46055;DHT22;31788;6.954;-71.872;2023-03-01T11:23:30;26.90;95.70
46055;DHT22;31788;6.954;-71.872;2023-03-01T11:26:04;26.90;95.80
46055;DHT22;31788;6.954;-71.872;2023-03-01T11:28:33;26.90;95.60
46055;DHT22;31788;6.954;-71.872;2023-03-01T11:31:07;26.90;95.70
46055;DHT22;31788;6.954;-71.872;2023-03-01T11:34:06;27.00;95.80
46055;DHT22;31788;6.954;-71.872;2023-03-01T11:36:51;27.00;95.60
46055;DHT22;31788;6.954;-71.872;2023-03-01T11:39:34;27.00;95.30
46055;DHT22;31788;6.954;-71.872;2023-03-01T11:42:24;27.10;95.20
46055;DHT22;31788;6.954;-71.872;2023-03-01T11:44:55;27.10;95.10
46055;DHT22;31788;6.954;-71.872;2023-03-01T11:55:54;27.20;95.50
46055;DHT22;31788;6.954;-71.872;2023-03-01T12:01:43;27.20;95.40
46055;DHT22;31788;6.954;-71.872;2023-03-01T12:07:04;27.20;95.20
46055;DHT22;31788;6.954;-71.872;2023-03-01T12:09:42;27.20;95.30
46055;DHT22;31788;6.954;-71.872;2023-03-01T12:15:47;27.20;94.80
46055;DHT22;31788;6.954;-71.872;2023-03-01T12:18:20;27.20;94.80
46055;DHT22;31788;6.954;-71.872;2023-03-01T12:43:27;27.20;95.70
46055;DHT22;31788;6.954;-71.872;2023-03-01T12:51:29;27.30;95.40
46055;DHT22;31788;6.954;-71.872;2023-03-01T12:53:58;27.30;95.40
46055;DHT22;31788;6.954;-71.872;2023-03-01T12:56:30;27.30;95.30
46055;DHT22;31788;6.954;-71.872;2023-03-01T13:02:45;27.30;95.40
46055;DHT22;31788;6.954;-71.872;2023-03-01T13:05:37;27.30;95.30
46055;DHT22;31788;6.954;-71.872;2023-03-01T13:08:31;27.30;95.10
46055;DHT22;31788;6.954;-71.872;2023-03-01T13:11:02;27.30;95.10
46055;DHT22;31788;6.954;-71.872;2023-03-01T13:13:31;27.40;95.10
46055;DHT22;31788;6.954;-71.872;2023-03-01T13:15:58;27.40;95.10
46055;DHT22;31788;6.954;-71.872;2023-03-01T13:18:44;27.40;95.10
46055;DHT22;31788;6.954;-71.872;2023-03-01T13:21:11;27.40;95.10
46055;DHT22;31788;6.954;-71.872;2023-03-01T13:23:40;27.40;95.00
46055;DHT22;31788;6.954;-71.872;2023-03-01T13:26:12;27.40;94.80
46055;DHT22;31788;6.954;-71.872;2023-03-01T13:28:50;27.40;94.70
46055;DHT22;31788;6.954;-71.872;2023-03-01T13:33:52;27.40;94.80
46055;DHT22;31788;6.954;-71.872;2023-03-01T13:38:55;27.50;94.70
46055;DHT22;31788;6.954;-71.872;2023-03-01T13:46:58;27.50;94.40
46055;DHT22;31788;6.954;-71.872;2023-03-01T13:49:31;27.50;94.40
46055;DHT22;31788;6.954;-71.872;2023-03-01T13:51:59;27.50;94.50
46055;DHT22;31788;6.954;-71.872;2023-03-01T13:54:32;27.60;94.40
46055;DHT22;31788;6.954;-71.872;2023-03-01T13:57:00;27.60;94.40
46055;DHT22;31788;6.954;-71.872;2023-03-01T13:59:27;27.60;94.50
46055;DHT22;31788;6.954;-71.872;2023-03-01T14:01:58;27.60;94.40
46055;DHT22;31788;6.954;-71.872;2023-03-01T14:04:32;27.60;94.40
46055;DHT22;31788;6.954;-71.872;2023-03-01T14:07:21;27.60;94.40
46055;DHT22;31788;6.954;-71.872;2023-03-01T14:09:55;27.60;94.40
46055;DHT22;31788;6.954;-71.872;2023-03-01T14:15:22;27.60;94.70
46055;DHT22;31788;6.954;-71.872;2023-03-01T14:20:28;27.60;95.60
46055;DHT22;31788;6.954;-71.872;2023-03-01T14:23:02;27.60;95.80
46055;DHT22;31788;6.954;-71.872;2023-03-01T14:25:37;27.60;96.50
46055;DHT22;31788;6.954;-71.872;2023-03-01T14:28:24;27.60;96.40
46055;DHT22;31788;6.954;-71.872;2023-03-01T14:30:59;27.60;96.50
46055;DHT22;31788;6.954;-71.872;2023-03-01T14:33:34;27.60;96.20
46055;DHT22;31788;6.954;-71.872;2023-03-01T14:36:03;27.60;96.40
46055;DHT22;31788;6.954;-71.872;2023-03-01T14:41:15;27.50;96.40
46055;DHT22;31788;6.954;-71.872;2023-03-01T14:43:45;27.60;96.40
46055;DHT22;31788;6.954;-71.872;2023-03-01T14:46:26;27.60;96.60
46055;DHT22;31788;6.954;-71.872;2023-03-01T14:48:56;27.60;96.60
46055;DHT22;31788;6.954;-71.872;2023-03-01T14:51:24;27.60;96.60
46055;DHT22;31788;6.954;-71.872;2023-03-01T14:53:51;27.70;96.50
46055;DHT22;31788;6.954;-71.872;2023-03-01T14:56:18;27.60;96.40
46055;DHT22;31788;6.954;-71.872;2023-03-01T14:58:46;27.60;96.10
46055;DHT22;31788;6.954;-71.872;2023-03-01T15:01:17;27.60;95.90
46055;DHT22;31788;6.954;-71.872;2023-03-01T15:03:48;27.70;95.80
46055;DHT22;31788;6.954;-71.872;2023-03-01T15:06:18;27.70;95.90
46055;DHT22;31788;6.954;-71.872;2023-03-01T15:08:49;27.70;95.80
46055;DHT22;31788;6.954;-71.872;2023-03-01T15:11:23;27.60;95.80
46055;DHT22;31788;6.954;-71.872;2023-03-01T15:13:51;27.70;95.80
46055;DHT22;31788;6.954;-71.872;2023-03-01T15:16:24;27.70;95.50
46055;DHT22;31788;6.954;-71.872;2023-03-01T15:19:04;27.70;95.50
46055;DHT22;31788;6.954;-71.872;2023-03-01T15:21:36;27.70;95.50
46055;DHT22;31788;6.954;-71.872;2023-03-01T15:26:51;27.80;95.70
46055;DHT22;31788;6.954;-71.872;2023-03-01T15:29:26;27.80;95.70
46055;DHT22;31788;6.954;-71.872;2023-03-01T15:32:00;27.80;95.70
46055;DHT22;31788;6.954;-71.872;2023-03-01T15:34:37;27.80;95.60
46055;DHT22;31788;6.954;-71.872;2023-03-01T15:37:05;27.80;95.70
46055;DHT22;31788;6.954;-71.872;2023-03-01T15:39:42;27.90;95.60
46055;DHT22;31788;6.954;-71.872;2023-03-01T15:47:40;27.90;95.10
46055;DHT22;31788;6.954;-71.872;2023-03-01T15:50:26;27.90;95.10
46055;DHT22;31788;6.954;-71.872;2023-03-01T15:52:53;27.90;95.00
46055;DHT22;31788;6.954;-71.872;2023-03-01T15:55:23;27.90;95.10
46055;DHT22;31788;6.954;-71.872;2023-03-01T15:57:50;27.90;95.20
46055;DHT22;31788;6.954;-71.872;2023-03-01T16:00:24;27.90;95.00
46055;DHT22;31788;6.954;-71.872;2023-03-01T16:02:51;28.00;95.00
46055;DHT22;31788;6.954;-71.872;2023-03-01T16:05:22;28.00;95.30
46055;DHT22;31788;6.954;-71.872;2023-03-01T16:07:50;27.90;95.20
46055;DHT22;31788;6.954;-71.872;2023-03-01T16:10:17;28.00;95.40
46055;DHT22;31788;6.954;-71.872;2023-03-01T16:12:44;28.00;95.30
46055;DHT22;31788;6.954;-71.872;2023-03-01T16:15:33;28.00;95.30
46055;DHT22;31788;6.954;-71.872;2023-03-01T16:18:03;28.00;95.20
46055;DHT22;31788;6.954;-71.872;2023-03-01T16:20:31;27.90;95.30
46055;DHT22;31788;6.954;-71.872;2023-03-01T16:22:59;27.90;95.30
46055;DHT22;31788;6.954;-71.872;2023-03-01T16:25:27;27.90;95.20
46055;DHT22;31788;6.954;-71.872;2023-03-01T16:27:53;27.90;95.20
46055;DHT22;31788;6.954;-71.872;2023-03-01T16:30:22;27.90;95.10
46055;DHT22;31788;6.954;-71.872;2023-03-01T16:32:49;27.90;95.20
46055;DHT22;31788;6.954;-71.872;2023-03-01T16:35:18;27.90;95.10
46055;DHT22;31788;6.954;-71.872;2023-03-01T16:37:45;27.90;95.20
46055;DHT22;31788;6.954;-71.872;2023-03-01T16:40:22;27.90;95.20
46055;DHT22;31788;6.954;-71.872;2023-03-01T16:42:50;27.90;95.30
46055;DHT22;31788;6.954;-71.872;2023-03-01T16:45:17;27.90;95.20
46055;DHT22;31788;6.954;-71.872;2023-03-01T16:47:45;27.80;95.40
46055;DHT22;31788;6.954;-71.872;2023-03-01T16:50:12;27.80;95.60
46055;DHT22;31788;6.954;-71.872;2023-03-01T16:52:38;27.80;95.80
46055;DHT22;31788;6.954;-71.872;2023-03-01T16:55:07;27.80;95.90
46055;DHT22;31788;6.954;-71.872;2023-03-01T16:57:36;27.80;95.90
46055;DHT22;31788;6.954;-71.872;2023-03-01T17:00:05;27.80;96.00
46055;DHT22;31788;6.954;-71.872;2023-03-01T17:02:34;27.80;96.00
46055;DHT22;31788;6.954;-71.872;2023-03-01T17:05:01;27.80;96.00
46055;DHT22;31788;6.954;-71.872;2023-03-01T17:07:33;27.80;96.00
46055;DHT22;31788;6.954;-71.872;2023-03-01T17:10:05;27.80;95.90
46055;DHT22;31788;6.954;-71.872;2023-03-01T17:12:34;27.80;95.70
46055;DHT22;31788;6.954;-71.872;2023-03-01T17:15:01;27.80;95.80
46055;DHT22;31788;6.954;-71.872;2023-03-01T17:17:28;27.80;96.00
46055;DHT22;31788;6.954;-71.872;2023-03-01T17:19:54;27.90;96.10
46055;DHT22;31788;6.954;-71.872;2023-03-01T17:22:22;27.80;95.80